sensor_id;sensor_type;location;lat;lon;timestamp;P1;durP1;ratioP1;P2;durP2;ratioP2
57790;SDS011;43621;51.798;21.588;2023-02-28T00:00:24;12.00;;;5.80;;
57790;SDS011;43621;51.798;21.588;2023-02-28T00:04:46;13.00;;;6.20;;
57790;SDS011;43621;51.798;21.588;2023-02-28T00:08:54;16.00;;;6.90;;
57790;SDS011;43621;51.798;21.588;2023-02-28T00:13:01;12.20;;;6.40;;
57790;SDS011;43621;51.798;21.588;2023-02-28T00:17:06;15.40;;;7.50;;
57790;SDS011;43621;51.798;21.588;2023-02-28T00:21:08;11.20;;;6.50;;
57790;SDS011;43621;51.798;21.588;2023-02-28T00:25:11;9.40;;;5.60;;
57790;SDS011;43621;51.798;21.588;2023-02-28T00:29:14;9.00;;;4.90;;
57790;SDS011;43621;51.798;21.588;2023-02-28T00:33:16;10.90;;;5.10;;
57790;SDS011;43621;51.798;21.588;2023-02-28T00:37:18;8.40;;;5.00;;
57790;SDS011;43621;51.798;21.588;2023-02-28T00:41:20;10.90;;;6.50;;
57790;SDS011;43621;51.798;21.588;2023-02-28T00:45:22;9.70;;;5.80;;
57790;SDS011;43621;51.798;21.588;2023-02-28T00:49:24;9.50;;;5.20;;
57790;SDS011;43621;51.798;21.588;2023-02-28T00:53:27;12.20;;;6.00;;
57790;SDS011;43621;51.798;21.588;2023-02-28T00:57:30;12.80;;;5.80;;
57790;SDS011;43621;51.798;21.588;2023-02-28T01:01:32;11.80;;;6.00;;
57790;SDS011;43621;51.798;21.588;2023-02-28T01:05:34;10.80;;;5.60;;
57790;SDS011;43621;51.798;21.588;2023-02-28T01:09:36;10.70;;;5.60;;
57790;SDS011;43621;51.798;21.588;2023-02-28T01:13:38;11.50;;;5.90;;
57790;SDS011;43621;51.798;21.588;2023-02-28T01:17:40;8.80;;;5.10;;
57790;SDS011;43621;51.798;21.588;2023-02-28T01:21:42;9.70;;;4.80;;
57790;SDS011;43621;51.798;21.588;2023-02-28T01:25:44;9.20;;;4.70;;
57790;SDS011;43621;51.798;21.588;2023-02-28T01:29:46;9.60;;;4.80;;
57790;SDS011;43621;51.798;21.588;2023-02-28T01:33:48;8.80;;;4.90;;
57790;SDS011;43621;51.798;21.588;2023-02-28T01:37:53;6.70;;;4.30;;
57790;SDS011;43621;51.798;21.588;2023-02-28T01:41:55;12.10;;;6.30;;
57790;SDS011;43621;51.798;21.588;2023-02-28T01:45:57;9.20;;;5.10;;
57790;SDS011;43621;51.798;21.588;2023-02-28T01:50:00;9.90;;;4.80;;
57790;SDS011;43621;51.798;21.588;2023-02-28T01:54:09;11.70;;;5.00;;
57790;SDS011;43621;51.798;21.588;2023-02-28T01:58:14;10.50;;;5.40;;
57790;SDS011;43621;51.798;21.588;2023-02-28T02:02:17;10.60;;;5.30;;
57790;SDS011;43621;51.798;21.588;2023-02-28T02:06:22;10.20;;;4.70;;
57790;SDS011;43621;51.798;21.588;2023-02-28T02:14:56;12.70;;;5.40;;
57790;SDS011;43621;51.798;21.588;2023-02-28T02:45:52;20.00;;;8.90;;
57790;SDS011;43621;51.798;21.588;2023-02-28T02:50:01;23.80;;;8.90;;
57790;SDS011;43621;51.798;21.588;2023-02-28T02:58:13;15.80;;;7.60;;
57790;SDS011;43621;51.798;21.588;2023-02-28T03:02:18;12.20;;;6.10;;
57790;SDS011;43621;51.798;21.588;2023-02-28T03:06:21;11.40;;;6.20;;
57790;SDS011;43621;51.798;21.588;2023-02-28T03:18:58;12.00;;;5.80;;
57790;SDS011;43621;51.798;21.588;2023-02-28T03:23:23;12.70;;;6.20;;
57790;SDS011;43621;51.798;21.588;2023-02-28T03:27:41;11.50;;;5.90;;
57790;SDS011;43621;51.798;21.588;2023-02-28T03:31:54;14.00;;;6.80;;
57790;SDS011;43621;51.798;21.588;2023-02-28T03:36:14;18.50;;;8.70;;
57790;SDS011;43621;51.798;21.588;2023-02-28T03:40:22;15.70;;;7.40;;
57790;SDS011;43621;51.798;21.588;2023-02-28T03:44:29;14.40;;;7.60;;
57790;SDS011;43621;51.798;21.588;2023-02-28T03:48:40;14.20;;;7.30;;
57790;SDS011;43621;51.798;21.588;2023-02-28T03:52:48;12.10;;;6.50;;
57790;SDS011;43621;51.798;21.588;2023-02-28T04:05:54;14.30;;;7.30;;
57790;SDS011;43621;51.798;21.588;2023-02-28T04:09:58;17.10;;;7.70;;
57790;SDS011;43621;51.798;21.588;2023-02-28T04:14:01;13.80;;;7.60;;
57790;SDS011;43621;51.798;21.588;2023-02-28T04:18:05;15.80;;;7.20;;
57790;SDS011;43621;51.798;21.588;2023-02-28T04:22:08;15.80;;;7.40;;
57790;SDS011;43621;51.798;21.588;2023-02-28T04:26:10;13.20;;;6.30;;
57790;SDS011;43621;51.798;21.588;2023-02-28T04:30:12;14.50;;;6.70;;
57790;SDS011;43621;51.798;21.588;2023-02-28T04:34:14;15.80;;;6.10;;
57790;SDS011;43621;51.798;21.588;2023-02-28T04:38:16;11.90;;;5.60;;
57790;SDS011;43621;51.798;21.588;2023-02-28T04:42:18;13.70;;;6.00;;
57790;SDS011;43621;51.798;21.588;2023-02-28T04:46:20;13.30;;;6.00;;
57790;SDS011;43621;51.798;21.588;2023-02-28T04:50:22;9.00;;;5.60;;
57790;SDS011;43621;51.798;21.588;2023-02-28T04:54:24;14.30;;;6.60;;
57790;SDS011;43621;51.798;21.588;2023-02-28T04:58:26;9.20;;;5.40;;
57790;SDS011;43621;51.798;21.588;2023-02-28T05:02:29;9.50;;;5.50;;
57790;SDS011;43621;51.798;21.588;2023-02-28T05:06:31;12.20;;;5.90;;
57790;SDS011;43621;51.798;21.588;2023-02-28T05:10:34;14.00;;;6.60;;
57790;SDS011;43621;51.798;21.588;2023-02-28T05:14:36;14.00;;;6.20;;
57790;SDS011;43621;51.798;21.588;2023-02-28T05:18:38;11.00;;;5.90;;
57790;SDS011;43621;51.798;21.588;2023-02-28T05:22:41;13.60;;;5.90;;
57790;SDS011;43621;51.798;21.588;2023-02-28T05:26:44;13.70;;;6.10;;
57790;SDS011;43621;51.798;21.588;2023-02-28T05:30:46;10.20;;;5.90;;
57790;SDS011;43621;51.798;21.588;2023-02-28T05:34:48;10.20;;;5.70;;
57790;SDS011;43621;51.798;21.588;2023-02-28T05:38:50;10.20;;;5.30;;
57790;SDS011;43621;51.798;21.588;2023-02-28T05:42:52;11.00;;;5.60;;
57790;SDS011;43621;51.798;21.588;2023-02-28T05:46:54;13.40;;;6.60;;
57790;SDS011;43621;51.798;21.588;2023-02-28T05:50:57;12.90;;;7.30;;
57790;SDS011;43621;51.798;21.588;2023-02-28T05:54:59;11.50;;;5.90;;
57790;SDS011;43621;51.798;21.588;2023-02-28T05:59:01;13.00;;;6.40;;
57790;SDS011;43621;51.798;21.588;2023-02-28T06:03:03;12.20;;;6.10;;
57790;SDS011;43621;51.798;21.588;2023-02-28T06:07:05;10.00;;;5.80;;
57790;SDS011;43621;51.798;21.588;2023-02-28T06:11:07;20.40;;;6.40;;
57790;SDS011;43621;51.798;21.588;2023-02-28T06:15:13;22.10;;;7.20;;
57790;SDS011;43621;51.798;21.588;2023-02-28T06:19:16;23.00;;;7.30;;
57790;SDS011;43621;51.798;21.588;2023-02-28T06:23:18;54.00;;;18.60;;
57790;SDS011;43621;51.798;21.588;2023-02-28T06:27:20;113.90;;;37.70;;
57790;SDS011;43621;51.798;21.588;2023-02-28T06:31:23;33.70;;;13.50;;
57790;SDS011;43621;51.798;21.588;2023-02-28T06:35:27;19.80;;;9.00;;
57790;SDS011;43621;51.798;21.588;2023-02-28T06:39:29;18.20;;;8.90;;
57790;SDS011;43621;51.798;21.588;2023-02-28T06:43:33;55.90;;;16.00;;
57790;SDS011;43621;51.798;21.588;2023-02-28T06:47:38;25.50;;;10.20;;
57790;SDS011;43621;51.798;21.588;2023-02-28T06:51:43;80.40;;;30.40;;
57790;SDS011;43621;51.798;21.588;2023-02-28T06:55:50;97.60;;;33.20;;
57790;SDS011;43621;51.798;21.588;2023-02-28T06:59:51;114.00;;;46.00;;
57790;SDS011;43621;51.798;21.588;2023-02-28T07:03:53;30.70;;;21.40;;
57790;SDS011;43621;51.798;21.588;2023-02-28T07:07:56;26.80;;;18.80;;
57790;SDS011;43621;51.798;21.588;2023-02-28T07:11:58;56.90;;;33.40;;
57790;SDS011;43621;51.798;21.588;2023-02-28T07:16:03;44.10;;;34.30;;
57790;SDS011;43621;51.798;21.588;2023-02-28T07:20:06;351.30;;;313.90;;
57790;SDS011;43621;51.798;21.588;2023-02-28T07:24:09;39.20;;;25.20;;
57790;SDS011;43621;51.798;21.588;2023-02-28T07:28:11;64.00;;;17.00;;
57790;SDS011;43621;51.798;21.588;2023-02-28T07:32:13;15.30;;;12.30;;
57790;SDS011;43621;51.798;21.588;2023-02-28T07:36:15;12.10;;;10.10;;
57790;SDS011;43621;51.798;21.588;2023-02-28T07:40:20;15.30;;;11.60;;
57790;SDS011;43621;51.798;21.588;2023-02-28T07:44:22;27.20;;;15.50;;
57790;SDS011;43621;51.798;21.588;2023-02-28T07:48:24;10.40;;;9.30;;
57790;SDS011;43621;51.798;21.588;2023-02-28T07:52:26;11.00;;;9.80;;
57790;SDS011;43621;51.798;21.588;2023-02-28T07:56:28;13.40;;;10.00;;
57790;SDS011;43621;51.798;21.588;2023-02-28T08:00:30;11.30;;;9.70;;
57790;SDS011;43621;51.798;21.588;2023-02-28T08:04:33;11.20;;;9.50;;
57790;SDS011;43621;51.798;21.588;2023-02-28T08:08:35;9.30;;;8.30;;
57790;SDS011;43621;51.798;21.588;2023-02-28T08:12:36;9.40;;;8.50;;
57790;SDS011;43621;51.798;21.588;2023-02-28T08:16:38;11.60;;;8.30;;
57790;SDS011;43621;51.798;21.588;2023-02-28T08:20:40;9.50;;;8.50;;
57790;SDS011;43621;51.798;21.588;2023-02-28T08:24:42;10.20;;;9.30;;
57790;SDS011;43621;51.798;21.588;2023-02-28T08:28:45;15.00;;;13.40;;
57790;SDS011;43621;51.798;21.588;2023-02-28T08:32:47;9.60;;;8.60;;
57790;SDS011;43621;51.798;21.588;2023-02-28T08:36:49;10.30;;;9.30;;
57790;SDS011;43621;51.798;21.588;2023-02-28T08:40:57;12.80;;;11.50;;
57790;SDS011;43621;51.798;21.588;2023-02-28T08:45:00;16.70;;;11.00;;
57790;SDS011;43621;51.798;21.588;2023-02-28T08:49:02;11.40;;;10.10;;
57790;SDS011;43621;51.798;21.588;2023-02-28T08:53:04;8.60;;;7.80;;
57790;SDS011;43621;51.798;21.588;2023-02-28T08:57:06;9.70;;;8.80;;
57790;SDS011;43621;51.798;21.588;2023-02-28T09:01:11;8.40;;;7.60;;
57790;SDS011;43621;51.798;21.588;2023-02-28T09:09:16;8.60;;;7.90;;
57790;SDS011;43621;51.798;21.588;2023-02-28T09:13:18;8.50;;;6.40;;
57790;SDS011;43621;51.798;21.588;2023-02-28T09:17:20;6.70;;;6.00;;
57790;SDS011;43621;51.798;21.588;2023-02-28T09:21:22;7.50;;;6.60;;
57790;SDS011;43621;51.798;21.588;2023-02-28T09:25:23;53.50;;;21.80;;
57790;SDS011;43621;51.798;21.588;2023-02-28T09:29:25;7.50;;;6.80;;
57790;SDS011;43621;51.798;21.588;2023-02-28T09:33:27;10.40;;;9.40;;
57790;SDS011;43621;51.798;21.588;2023-02-28T09:37:29;8.60;;;7.90;;
57790;SDS011;43621;51.798;21.588;2023-02-28T09:41:37;9.80;;;9.00;;
57790;SDS011;43621;51.798;21.588;2023-02-28T09:45:50;9.30;;;8.50;;
57790;SDS011;43621;51.798;21.588;2023-02-28T09:50:03;10.20;;;9.30;;
57790;SDS011;43621;51.798;21.588;2023-02-28T09:54:21;14.10;;;9.70;;
57790;SDS011;43621;51.798;21.588;2023-02-28T09:58:28;8.40;;;7.70;;
57790;SDS011;43621;51.798;21.588;2023-02-28T10:06:50;76.80;;;25.70;;
57790;SDS011;43621;51.798;21.588;2023-02-28T10:10:56;8.80;;;7.80;;
57790;SDS011;43621;51.798;21.588;2023-02-28T10:15:02;9.60;;;8.70;;
57790;SDS011;43621;51.798;21.588;2023-02-28T10:23:28;8.70;;;7.70;;
57790;SDS011;43621;51.798;21.588;2023-02-28T10:27:33;10.70;;;9.60;;
57790;SDS011;43621;51.798;21.588;2023-02-28T10:31:35;57.60;;;15.40;;
57790;SDS011;43621;51.798;21.588;2023-02-28T10:35:37;8.60;;;7.70;;
57790;SDS011;43621;51.798;21.588;2023-02-28T10:39:40;13.60;;;12.40;;
57790;SDS011;43621;51.798;21.588;2023-02-28T10:43:50;9.00;;;8.10;;
57790;SDS011;43621;51.798;21.588;2023-02-28T10:47:55;15.00;;;13.50;;
57790;SDS011;43621;51.798;21.588;2023-02-28T10:52:00;13.60;;;9.40;;
57790;SDS011;43621;51.798;21.588;2023-02-28T11:08:33;9.70;;;7.80;;
57790;SDS011;43621;51.798;21.588;2023-02-28T11:12:39;18.10;;;9.90;;
57790;SDS011;43621;51.798;21.588;2023-02-28T11:16:44;11.20;;;9.70;;
57790;SDS011;43621;51.798;21.588;2023-02-28T11:20:52;14.40;;;11.60;;
57790;SDS011;43621;51.798;21.588;2023-02-28T11:25:00;52.40;;;24.50;;
57790;SDS011;43621;51.798;21.588;2023-02-28T11:29:11;20.20;;;13.80;;
57790;SDS011;43621;51.798;21.588;2023-02-28T11:33:26;30.70;;;17.10;;
57790;SDS011;43621;51.798;21.588;2023-02-28T11:37:30;12.90;;;9.50;;
57790;SDS011;43621;51.798;21.588;2023-02-28T12:25:32;13.60;;;8.10;;
57790;SDS011;43621;51.798;21.588;2023-02-28T12:29:54;17.80;;;8.80;;
57790;SDS011;43621;51.798;21.588;2023-02-28T12:34:01;10.70;;;7.90;;
57790;SDS011;43621;51.798;21.588;2023-02-28T12:42:38;34.80;;;24.30;;
57790;SDS011;43621;51.798;21.588;2023-02-28T12:46:50;43.80;;;28.40;;
57790;SDS011;43621;51.798;21.588;2023-02-28T12:50:56;18.00;;;12.90;;
57790;SDS011;43621;51.798;21.588;2023-02-28T13:12:01;28.20;;;16.00;;
57790;SDS011;43621;51.798;21.588;2023-02-28T13:16:04;16.30;;;11.10;;
57790;SDS011;43621;51.798;21.588;2023-02-28T13:20:23;38.70;;;13.40;;
57790;SDS011;43621;51.798;21.588;2023-02-28T13:45:30;12.00;;;8.70;;
57790;SDS011;43621;51.798;21.588;2023-02-28T13:49:39;13.90;;;8.10;;
57790;SDS011;43621;51.798;21.588;2023-02-28T13:53:52;44.70;;;14.60;;
57790;SDS011;43621;51.798;21.588;2023-02-28T13:58:12;17.60;;;9.60;;
57790;SDS011;43621;51.798;21.588;2023-02-28T14:06:37;72.60;;;37.50;;
57790;SDS011;43621;51.798;21.588;2023-02-28T14:10:42;24.00;;;12.70;;
57790;SDS011;43621;51.798;21.588;2023-02-28T14:18:56;47.40;;;26.00;;
57790;SDS011;43621;51.798;21.588;2023-02-28T14:23:26;29.80;;;17.20;;
57790;SDS011;43621;51.798;21.588;2023-02-28T14:27:32;23.30;;;13.90;;
57790;SDS011;43621;51.798;21.588;2023-02-28T14:31:45;15.30;;;10.30;;
57790;SDS011;43621;51.798;21.588;2023-02-28T14:40:35;20.30;;;10.50;;
57790;SDS011;43621;51.798;21.588;2023-02-28T14:44:40;17.10;;;10.00;;
57790;SDS011;43621;51.798;21.588;2023-02-28T14:48:42;17.80;;;10.50;;
57790;SDS011;43621;51.798;21.588;2023-02-28T14:52:47;23.10;;;13.60;;
57790;SDS011;43621;51.798;21.588;2023-02-28T14:56:53;21.50;;;11.80;;
57790;SDS011;43621;51.798;21.588;2023-02-28T15:00:57;20.50;;;14.50;;
57790;SDS011;43621;51.798;21.588;2023-02-28T15:05:09;24.70;;;17.00;;
57790;SDS011;43621;51.798;21.588;2023-02-28T15:09:25;15.70;;;10.60;;
57790;SDS011;43621;51.798;21.588;2023-02-28T15:13:36;19.10;;;12.60;;
57790;SDS011;43621;51.798;21.588;2023-02-28T15:17:46;56.50;;;18.10;;
57790;SDS011;43621;51.798;21.588;2023-02-28T15:21:55;26.00;;;17.60;;
57790;SDS011;43621;51.798;21.588;2023-02-28T15:26:17;44.70;;;23.10;;
57790;SDS011;43621;51.798;21.588;2023-02-28T15:30:24;61.40;;;26.90;;
57790;SDS011;43621;51.798;21.588;2023-02-28T15:38:41;58.30;;;29.90;;
57790;SDS011;43621;51.798;21.588;2023-02-28T15:47:14;49.00;;;21.40;;
57790;SDS011;43621;51.798;21.588;2023-02-28T15:51:30;40.90;;;16.90;;
57790;SDS011;43621;51.798;21.588;2023-02-28T15:55:35;35.40;;;15.90;;
57790;SDS011;43621;51.798;21.588;2023-02-28T15:59:38;73.20;;;25.90;;
57790;SDS011;43621;51.798;21.588;2023-02-28T16:03:42;86.50;;;33.70;;
57790;SDS011;43621;51.798;21.588;2023-02-28T16:07:47;74.10;;;22.20;;
57790;SDS011;43621;51.798;21.588;2023-02-28T16:11:51;52.80;;;18.70;;
57790;SDS011;43621;51.798;21.588;2023-02-28T16:15:56;104.10;;;34.80;;
57790;SDS011;43621;51.798;21.588;2023-02-28T16:19:58;89.60;;;37.50;;
57790;SDS011;43621;51.798;21.588;2023-02-28T16:24:00;101.90;;;34.00;;
57790;SDS011;43621;51.798;21.588;2023-02-28T16:28:02;89.10;;;32.80;;
57790;SDS011;43621;51.798;21.588;2023-02-28T16:32:05;87.30;;;35.00;;
57790;SDS011;43621;51.798;21.588;2023-02-28T16:36:09;108.90;;;46.50;;
57790;SDS011;43621;51.798;21.588;2023-02-28T16:40:16;226.80;;;95.40;;
57790;SDS011;43621;51.798;21.588;2023-02-28T16:44:27;220.20;;;100.70;;
57790;SDS011;43621;51.798;21.588;2023-02-28T16:48:34;218.00;;;92.20;;
57790;SDS011;43621;51.798;21.588;2023-02-28T16:52:36;169.40;;;82.70;;
57790;SDS011;43621;51.798;21.588;2023-02-28T16:56:39;181.30;;;85.10;;
57790;SDS011;43621;51.798;21.588;2023-02-28T17:00:46;175.80;;;83.00;;
57790;SDS011;43621;51.798;21.588;2023-02-28T17:04:48;183.90;;;83.40;;
57790;SDS011;43621;51.798;21.588;2023-02-28T17:08:50;804.80;;;251.70;;
57790;SDS011;43621;51.798;21.588;2023-02-28T17:12:52;687.00;;;231.80;;
57790;SDS011;43621;51.798;21.588;2023-02-28T17:16:54;459.60;;;167.40;;
57790;SDS011;43621;51.798;21.588;2023-02-28T17:20:56;300.40;;;116.30;;
57790;SDS011;43621;51.798;21.588;2023-02-28T17:24:59;219.00;;;95.30;;
57790;SDS011;43621;51.798;21.588;2023-02-28T17:29:01;184.90;;;79.70;;
57790;SDS011;43621;51.798;21.588;2023-02-28T17:33:03;170.60;;;85.10;;
57790;SDS011;43621;51.798;21.588;2023-02-28T17:37:04;177.90;;;84.80;;
57790;SDS011;43621;51.798;21.588;2023-02-28T17:41:07;169.70;;;78.50;;
57790;SDS011;43621;51.798;21.588;2023-02-28T17:45:12;162.40;;;64.60;;
57790;SDS011;43621;51.798;21.588;2023-02-28T17:49:15;283.30;;;94.70;;
57790;SDS011;43621;51.798;21.588;2023-02-28T17:53:18;273.50;;;95.70;;
57790;SDS011;43621;51.798;21.588;2023-02-28T17:57:20;196.30;;;70.10;;
57790;SDS011;43621;51.798;21.588;2023-02-28T18:01:22;166.30;;;61.50;;
57790;SDS011;43621;51.798;21.588;2023-02-28T18:05:27;150.20;;;60.00;;
57790;SDS011;43621;51.798;21.588;2023-02-28T18:09:29;107.80;;;46.00;;
57790;SDS011;43621;51.798;21.588;2023-02-28T18:13:31;84.80;;;39.50;;
57790;SDS011;43621;51.798;21.588;2023-02-28T18:17:33;64.10;;;29.30;;
57790;SDS011;43621;51.798;21.588;2023-02-28T18:21:34;54.40;;;27.00;;
57790;SDS011;43621;51.798;21.588;2023-02-28T18:25:38;59.20;;;26.60;;
57790;SDS011;43621;51.798;21.588;2023-02-28T18:29:41;70.60;;;34.40;;
57790;SDS011;43621;51.798;21.588;2023-02-28T18:33:46;97.80;;;39.20;;
57790;SDS011;43621;51.798;21.588;2023-02-28T18:37:49;133.30;;;48.70;;
57790;SDS011;43621;51.798;21.588;2023-02-28T18:41:51;204.40;;;70.00;;
57790;SDS011;43621;51.798;21.588;2023-02-28T18:45:53;439.10;;;122.30;;
57790;SDS011;43621;51.798;21.588;2023-02-28T18:49:56;308.00;;;90.60;;
57790;SDS011;43621;51.798;21.588;2023-02-28T18:53:58;145.70;;;53.50;;
57790;SDS011;43621;51.798;21.588;2023-02-28T18:58:00;154.60;;;53.00;;
57790;SDS011;43621;51.798;21.588;2023-02-28T19:02:02;138.90;;;52.20;;
57790;SDS011;43621;51.798;21.588;2023-02-28T19:06:04;164.60;;;56.70;;
57790;SDS011;43621;51.798;21.588;2023-02-28T19:10:07;180.60;;;60.60;;
57790;SDS011;43621;51.798;21.588;2023-02-28T19:14:10;165.40;;;62.80;;
57790;SDS011;43621;51.798;21.588;2023-02-28T19:18:11;149.40;;;59.70;;
57790;SDS011;43621;51.798;21.588;2023-02-28T19:22:13;139.90;;;54.20;;
57790;SDS011;43621;51.798;21.588;2023-02-28T19:26:20;136.60;;;51.60;;
57790;SDS011;43621;51.798;21.588;2023-02-28T19:30:23;173.70;;;60.50;;
57790;SDS011;43621;51.798;21.588;2023-02-28T19:34:26;149.70;;;58.30;;
57790;SDS011;43621;51.798;21.588;2023-02-28T19:38:28;131.30;;;53.70;;
57790;SDS011;43621;51.798;21.588;2023-02-28T19:42:30;143.20;;;54.20;;
57790;SDS011;43621;51.798;21.588;2023-02-28T19:46:33;176.90;;;69.90;;
57790;SDS011;43621;51.798;21.588;2023-02-28T19:50:35;217.50;;;91.10;;
57790;SDS011;43621;51.798;21.588;2023-02-28T19:54:38;215.90;;;94.40;;
57790;SDS011;43621;51.798;21.588;2023-02-28T19:58:39;217.30;;;95.50;;
57790;SDS011;43621;51.798;21.588;2023-02-28T20:02:41;159.80;;;70.60;;
57790;SDS011;43621;51.798;21.588;2023-02-28T20:06:44;245.50;;;95.80;;
57790;SDS011;43621;51.798;21.588;2023-02-28T20:10:46;306.20;;;125.20;;
57790;SDS011;43621;51.798;21.588;2023-02-28T20:14:48;334.80;;;134.50;;
57790;SDS011;43621;51.798;21.588;2023-02-28T20:18:51;246.30;;;108.80;;
57790;SDS011;43621;51.798;21.588;2023-02-28T20:22:52;297.60;;;129.80;;
57790;SDS011;43621;51.798;21.588;2023-02-28T20:26:54;193.30;;;83.70;;
57790;SDS011;43621;51.798;21.588;2023-02-28T20:30:57;176.30;;;75.20;;
57790;SDS011;43621;51.798;21.588;2023-02-28T20:35:00;134.00;;;63.10;;
57790;SDS011;43621;51.798;21.588;2023-02-28T20:39:02;182.10;;;77.50;;
57790;SDS011;43621;51.798;21.588;2023-02-28T20:43:05;180.70;;;80.30;;
57790;SDS011;43621;51.798;21.588;2023-02-28T20:47:07;252.90;;;105.90;;
57790;SDS011;43621;51.798;21.588;2023-02-28T20:51:09;243.80;;;104.20;;
57790;SDS011;43621;51.798;21.588;2023-02-28T20:55:12;223.80;;;101.80;;
57790;SDS011;43621;51.798;21.588;2023-02-28T20:59:14;239.00;;;108.00;;
57790;SDS011;43621;51.798;21.588;2023-02-28T21:03:15;283.60;;;124.20;;
57790;SDS011;43621;51.798;21.588;2023-02-28T21:07:17;237.40;;;103.00;;
57790;SDS011;43621;51.798;21.588;2023-02-28T21:11:20;198.50;;;88.70;;
57790;SDS011;43621;51.798;21.588;2023-02-28T21:15:25;89.60;;;41.30;;
57790;SDS011;43621;51.798;21.588;2023-02-28T21:19:26;81.00;;;39.00;;
57790;SDS011;43621;51.798;21.588;2023-02-28T21:23:29;84.30;;;39.50;;
57790;SDS011;43621;51.798;21.588;2023-02-28T21:27:31;88.50;;;39.50;;
57790;SDS011;43621;51.798;21.588;2023-02-28T21:31:33;114.90;;;55.00;;
57790;SDS011;43621;51.798;21.588;2023-02-28T21:35:36;147.90;;;58.00;;
57790;SDS011;43621;51.798;21.588;2023-02-28T21:39:38;135.30;;;51.20;;
57790;SDS011;43621;51.798;21.588;2023-02-28T21:43:40;136.00;;;52.50;;
57790;SDS011;43621;51.798;21.588;2023-02-28T21:47:42;112.40;;;46.80;;
57790;SDS011;43621;51.798;21.588;2023-02-28T21:51:44;112.30;;;40.50;;
57790;SDS011;43621;51.798;21.588;2023-02-28T21:55:46;113.30;;;46.60;;
57790;SDS011;43621;51.798;21.588;2023-02-28T21:59:48;110.50;;;46.30;;
57790;SDS011;43621;51.798;21.588;2023-02-28T22:03:50;121.60;;;48.10;;
57790;SDS011;43621;51.798;21.588;2023-02-28T22:07:53;110.40;;;44.20;;
57790;SDS011;43621;51.798;21.588;2023-02-28T22:11:55;97.00;;;40.60;;
57790;SDS011;43621;51.798;21.588;2023-02-28T22:16:01;93.20;;;41.70;;
57790;SDS011;43621;51.798;21.588;2023-02-28T22:20:08;92.30;;;41.00;;
57790;SDS011;43621;51.798;21.588;2023-02-28T22:24:13;96.30;;;42.30;;
57790;SDS011;43621;51.798;21.588;2023-02-28T22:28:16;86.70;;;39.60;;
57790;SDS011;43621;51.798;21.588;2023-02-28T22:32:18;100.30;;;42.90;;
57790;SDS011;43621;51.798;21.588;2023-02-28T22:36:20;104.00;;;44.90;;
57790;SDS011;43621;51.798;21.588;2023-02-28T22:40:22;132.40;;;62.50;;
57790;SDS011;43621;51.798;21.588;2023-02-28T22:44:24;144.50;;;72.00;;
57790;SDS011;43621;51.798;21.588;2023-02-28T22:48:26;126.80;;;54.90;;
57790;SDS011;43621;51.798;21.588;2023-02-28T22:52:27;133.70;;;64.00;;
57790;SDS011;43621;51.798;21.588;2023-02-28T22:56:29;120.30;;;53.90;;
57790;SDS011;43621;51.798;21.588;2023-02-28T23:00:31;110.10;;;48.10;;
57790;SDS011;43621;51.798;21.588;2023-02-28T23:04:33;100.70;;;43.60;;
57790;SDS011;43621;51.798;21.588;2023-02-28T23:08:35;93.40;;;44.10;;
57790;SDS011;43621;51.798;21.588;2023-02-28T23:12:37;94.00;;;40.70;;
57790;SDS011;43621;51.798;21.588;2023-02-28T23:16:51;90.80;;;43.00;;
57790;SDS011;43621;51.798;21.588;2023-02-28T23:20:55;97.30;;;41.20;;
57790;SDS011;43621;51.798;21.588;2023-02-28T23:24:57;107.90;;;45.70;;
57790;SDS011;43621;51.798;21.588;2023-02-28T23:28:59;115.30;;;50.40;;
57790;SDS011;43621;51.798;21.588;2023-02-28T23:33:01;118.60;;;53.20;;
57790;SDS011;43621;51.798;21.588;2023-02-28T23:37:03;106.80;;;49.90;;
57790;SDS011;43621;51.798;21.588;2023-02-28T23:41:08;89.70;;;42.70;;
57790;SDS011;43621;51.798;21.588;2023-02-28T23:45:11;102.50;;;47.20;;
57790;SDS011;43621;51.798;21.588;2023-02-28T23:49:14;105.20;;;48.70;;
57790;SDS011;43621;51.798;21.588;2023-02-28T23:53:19;113.80;;;48.80;;
57790;SDS011;43621;51.798;21.588;2023-02-28T23:57:21;95.60;;;45.40;;
